createdAt,value
2018-10-03T00:00:26.630Z,96.19
2018-10-03T00:02:55.014Z,96.50
2018-10-03T00:05:23.400Z,97.13
2018-10-03T00:07:51.819Z,96.36
2018-10-03T00:10:20.261Z,96.57
2018-10-03T00:12:49.318Z,96.82
2018-10-03T00:15:17.899Z,96.50
2018-10-03T00:17:46.333Z,96.73
2018-10-03T00:20:14.722Z,97.09
2018-10-03T00:22:43.718Z,96.84
2018-10-03T00:25:12.158Z,96.21
2018-10-03T00:27:40.645Z,96.07
2018-10-03T00:30:09.283Z,96.36
2018-10-03T00:32:37.819Z,95.59
2018-10-03T00:35:06.435Z,96.56
2018-10-03T00:37:34.827Z,96.60
2018-10-03T00:40:03.810Z,97.23
2018-10-03T00:42:37.266Z,96.82
2018-10-03T00:45:06.450Z,97.80
2018-10-03T00:47:36.310Z,97.33
2018-10-03T00:50:13.517Z,97.27
2018-10-03T00:52:42.429Z,97.12
2018-10-03T00:55:15.735Z,97.13
2018-10-03T00:57:50.710Z,97.00
2018-10-03T01:00:20.472Z,97.29
2018-10-03T01:02:48.939Z,96.85
2018-10-03T01:05:17.353Z,96.87
2018-10-03T01:07:45.807Z,96.55
2018-10-03T01:10:14.249Z,96.23
2018-10-03T01:12:43.758Z,97.29
2018-10-03T01:15:12.242Z,97.12
2018-10-03T01:17:41.110Z,96.84
2018-10-03T01:20:09.501Z,96.05
2018-10-03T01:22:38.422Z,96.51
2018-10-03T01:25:06.798Z,95.88
2018-10-03T01:27:35.509Z,96.60
2018-10-03T01:30:05.473Z,95.80
2018-10-03T01:32:34.373Z,96.19
2018-10-03T01:35:02.869Z,96.35
2018-10-03T01:37:31.317Z,96.75
2018-10-03T01:39:59.698Z,97.19
2018-10-03T01:42:28.109Z,97.00
2018-10-03T01:44:56.701Z,97.47
2018-10-03T01:47:25.421Z,97.17
2018-10-03T01:49:54.430Z,96.70
2018-10-03T01:52:22.921Z,96.54
2018-10-03T01:54:51.359Z,96.40
2018-10-03T01:57:20.441Z,96.63
2018-10-03T01:59:48.845Z,96.76
2018-10-03T02:02:18.348Z,97.08
2018-10-03T02:04:46.832Z,97.47
2018-10-03T02:07:15.303Z,96.66
2018-10-03T02:09:44.773Z,96.98
2018-10-03T02:12:13.277Z,97.30
2018-10-03T02:14:41.711Z,97.53
2018-10-03T02:17:10.089Z,96.84
2018-10-03T02:19:38.486Z,96.81
2018-10-03T02:22:07.192Z,96.49
2018-10-03T02:24:36.157Z,97.40
2018-10-03T02:27:04.833Z,96.85
2018-10-03T02:29:33.269Z,97.15
2018-10-03T02:32:01.822Z,97.21
2018-10-03T02:34:30.352Z,97.66
2018-10-03T02:36:58.774Z,97.64
2018-10-03T02:39:27.181Z,97.50
2018-10-03T02:41:55.578Z,97.35
2018-10-03T02:44:24.089Z,96.51
2018-10-03T02:46:53.630Z,97.01
2018-10-03T02:49:22.185Z,96.58
2018-10-03T02:51:51.071Z,96.62
2018-10-03T02:54:20.951Z,95.96
2018-10-03T02:56:49.407Z,96.42
2018-10-03T02:59:18.561Z,97.22
2018-10-03T03:01:47.254Z,95.82
2018-10-03T03:04:15.686Z,96.28
2018-10-03T03:06:44.062Z,96.76
2018-10-03T03:09:14.231Z,97.29
2018-10-03T03:11:42.641Z,96.95
2018-10-03T03:14:11.557Z,97.13
2018-10-03T03:16:40.506Z,96.77
2018-10-03T03:19:11.641Z,97.06
2018-10-03T03:21:40.118Z,96.97
2018-10-03T03:24:08.542Z,96.81
2018-10-03T03:26:37.729Z,97.09
2018-10-03T03:29:06.241Z,97.65
2018-10-03T03:31:34.954Z,96.98
2018-10-03T03:34:03.315Z,96.93
2018-10-03T03:36:31.909Z,96.86
2018-10-03T03:39:00.364Z,97.43
2018-10-03T03:41:28.977Z,97.52
2018-10-03T03:43:57.353Z,97.28
2018-10-03T03:46:25.784Z,97.74
2018-10-03T03:48:54.197Z,97.62
2018-10-03T03:51:22.642Z,97.29
2018-10-03T03:53:51.033Z,97.17
2018-10-03T03:56:19.504Z,97.61
2018-10-03T03:58:47.896Z,97.87
2018-10-03T04:01:17.181Z,97.56
2018-10-03T04:03:45.575Z,98.22
2018-10-03T04:06:13.953Z,97.68
2018-10-03T04:08:42.729Z,98.11
2018-10-03T04:11:11.674Z,97.91
2018-10-03T04:13:40.070Z,97.96
2018-10-03T04:16:09.169Z,98.38
2018-10-03T04:18:37.650Z,98.52
2018-10-03T04:21:06.017Z,98.56
2018-10-03T04:23:35.721Z,98.28
2018-10-03T04:26:05.158Z,98.57
2018-10-03T04:28:33.534Z,98.90
2018-10-03T04:31:01.985Z,99.13
2018-10-03T04:33:30.615Z,99.51
2018-10-03T04:35:58.986Z,99.63
2018-10-03T04:38:28.414Z,98.98
2018-10-03T04:40:56.758Z,99.03
2018-10-03T04:43:25.220Z,98.67
2018-10-03T04:45:53.580Z,98.93
2018-10-03T04:48:22.130Z,98.76
2018-10-03T04:50:50.645Z,98.49
2018-10-03T04:53:20.026Z,98.56
2018-10-03T04:55:48.445Z,98.88
2018-10-03T04:58:16.809Z,98.56
2018-10-03T05:00:46.039Z,98.66
2018-10-03T05:03:14.411Z,98.26
2018-10-03T05:05:43.069Z,98.35
2018-10-03T05:08:11.538Z,98.34
2018-10-03T05:10:39.981Z,97.95
2018-10-03T05:13:08.629Z,97.96
2018-10-03T05:15:37.250Z,97.92
2018-10-03T05:18:05.890Z,98.08
2018-10-03T05:20:34.282Z,97.70
2018-10-03T05:23:03.105Z,97.77
2018-10-03T05:25:31.696Z,97.65
2018-10-03T05:28:00.266Z,97.01
2018-10-03T05:30:28.620Z,97.36
2018-10-03T05:32:57.270Z,96.34
2018-10-03T05:35:25.929Z,96.31
2018-10-03T05:37:55.066Z,96.77
2018-10-03T05:40:23.537Z,96.55
2018-10-03T05:42:51.982Z,96.47
2018-10-03T05:45:20.658Z,96.08
2018-10-03T05:47:49.017Z,96.73
2018-10-03T05:50:17.455Z,96.10
2018-10-03T05:52:45.853Z,96.94
2018-10-03T05:55:15.019Z,96.46
2018-10-03T05:57:44.049Z,96.41
2018-10-03T06:00:14.670Z,96.56
2018-10-03T06:02:43.125Z,95.89
2018-10-03T06:05:11.769Z,96.20
2018-10-03T06:07:40.170Z,96.37
2018-10-03T06:10:08.582Z,96.31
2018-10-03T06:12:37.030Z,95.82
2018-10-03T06:15:06.162Z,96.12
2018-10-03T06:17:35.361Z,95.91
2018-10-03T06:20:03.892Z,95.21
2018-10-03T06:22:32.259Z,95.37
2018-10-03T06:25:01.005Z,95.88
2018-10-03T06:27:30.122Z,96.10
2018-10-03T06:29:58.578Z,95.84
2018-10-03T06:32:27.002Z,96.61
2018-10-03T06:34:55.425Z,97.17
2018-10-03T06:37:23.829Z,96.35
2018-10-03T06:39:52.339Z,96.17
2018-10-03T06:42:20.967Z,96.31
2018-10-03T06:44:49.342Z,96.15
2018-10-03T06:47:17.899Z,95.50
2018-10-03T06:49:46.635Z,96.05
2018-10-03T06:52:15.177Z,95.69
2018-10-03T06:54:44.588Z,95.44
2018-10-03T06:57:13.315Z,95.28
2018-10-03T06:59:41.706Z,95.86
2018-10-03T07:02:10.592Z,95.78
2018-10-03T07:04:38.981Z,95.49
2018-10-03T07:07:07.325Z,95.14
2018-10-03T07:09:35.682Z,94.70
2018-10-03T07:12:04.054Z,94.65
2018-10-03T07:14:32.440Z,94.83
2018-10-03T07:17:01.379Z,95.69
2018-10-03T07:19:29.749Z,94.93
2018-10-03T07:21:59.937Z,94.10
2018-10-03T07:24:28.874Z,94.43
2018-10-03T07:26:58.345Z,93.92
2018-10-03T07:29:27.356Z,94.26
2018-10-03T07:31:56.788Z,93.68
2018-10-03T07:34:25.163Z,93.19
2018-10-03T07:36:53.573Z,92.97
2018-10-03T07:39:22.196Z,92.10
2018-10-03T07:41:50.694Z,91.30
2018-10-03T07:44:19.072Z,90.67
2018-10-03T07:46:47.701Z,91.05
2018-10-03T07:49:16.118Z,90.39
2018-10-03T07:51:44.538Z,90.72
2018-10-03T07:54:12.999Z,89.43
2018-10-03T07:56:41.505Z,89.14
2018-10-03T07:59:09.998Z,89.75
2018-10-03T08:01:38.350Z,88.50
2018-10-03T08:04:06.770Z,87.57
2018-10-03T08:06:35.125Z,88.96
2018-10-03T08:09:03.804Z,90.35
2018-10-03T08:11:32.474Z,88.09
2018-10-03T08:14:00.885Z,87.65
2018-10-03T08:16:29.710Z,89.10
2018-10-03T08:18:58.093Z,88.77
2018-10-03T08:21:27.350Z,89.05
2018-10-03T08:23:56.050Z,87.61
2018-10-03T08:26:24.450Z,87.22
2018-10-03T08:28:52.813Z,83.58
2018-10-03T08:31:24.918Z,80.80
2018-10-03T08:33:53.478Z,82.92
2018-10-03T08:36:23.473Z,80.35
2018-10-03T08:38:51.889Z,82.37
2018-10-03T08:41:20.396Z,80.96
2018-10-03T08:43:49.484Z,79.69
2018-10-03T08:46:17.885Z,83.24
2018-10-03T08:48:46.317Z,82.88
2018-10-03T08:51:14.778Z,81.57
2018-10-03T08:53:43.129Z,83.33
2018-10-03T08:56:11.946Z,81.51
2018-10-03T08:58:40.510Z,78.91
2018-10-03T09:01:08.926Z,79.16
2018-10-03T09:03:37.322Z,77.39
2018-10-03T09:06:06.678Z,75.61
2018-10-03T09:08:35.036Z,79.33
2018-10-03T09:11:03.548Z,78.48
2018-10-03T09:13:31.937Z,75.98
2018-10-03T09:16:00.346Z,76.47
2018-10-03T09:18:28.710Z,78.77
2018-10-03T09:20:57.551Z,75.99
2018-10-03T09:23:26.082Z,73.43
2018-10-03T09:25:54.621Z,74.19
2018-10-03T09:28:23.378Z,74.91
2018-10-03T09:30:51.979Z,70.28
2018-10-03T09:33:20.433Z,69.27
2018-10-03T09:35:48.961Z,68.98
2018-10-03T09:38:18.309Z,68.42
2018-10-03T09:40:46.749Z,70.15
2018-10-03T09:43:15.139Z,69.11
2018-10-03T09:45:43.542Z,67.67
2018-10-03T09:48:12.824Z,68.41
2018-10-03T09:50:42.061Z,65.74
2018-10-03T09:53:10.498Z,67.72
2018-10-03T09:55:39.034Z,67.27
2018-10-03T09:58:07.416Z,67.75
2018-10-03T10:00:41.125Z,71.10
2018-10-03T10:03:09.604Z,72.44
2018-10-03T10:05:37.962Z,68.88
2018-10-03T10:08:06.389Z,67.06
2018-10-03T10:10:34.763Z,67.56
2018-10-03T10:13:03.137Z,65.62
2018-10-03T10:15:33.922Z,67.08
2018-10-03T10:18:02.894Z,65.92
2018-10-03T10:20:31.308Z,68.19
2018-10-03T10:22:59.670Z,67.22
2018-10-03T10:25:28.092Z,66.69
2018-10-03T10:27:56.491Z,69.09
2018-10-03T10:30:24.889Z,68.78
2018-10-03T10:32:53.617Z,68.01
2018-10-03T10:35:21.985Z,67.78
2018-10-03T10:37:50.477Z,68.62
2018-10-03T10:40:18.858Z,69.28
2018-10-03T10:42:47.541Z,69.12
2018-10-03T10:45:15.861Z,69.46
2018-10-03T10:47:44.201Z,69.74
2018-10-03T10:50:12.764Z,71.11
2018-10-03T10:52:41.288Z,70.94
2018-10-03T10:55:09.670Z,72.37
2018-10-03T10:57:38.062Z,72.41
2018-10-03T11:00:06.430Z,71.16
2018-10-03T11:02:34.814Z,70.34
2018-10-03T11:05:03.145Z,69.74
2018-10-03T11:07:32.525Z,70.04
2018-10-03T11:10:01.299Z,69.24
2018-10-03T11:12:30.874Z,69.05
2018-10-03T11:15:00.153Z,69.46
2018-10-03T11:17:30.928Z,69.89
2018-10-03T11:19:59.285Z,69.67
2018-10-03T11:22:27.660Z,68.49
2018-10-03T11:24:56.115Z,66.91
2018-10-03T11:27:25.822Z,67.78
2018-10-03T11:29:54.218Z,68.33
2018-10-03T11:32:22.632Z,67.20
2018-10-03T11:34:51.027Z,65.78
2018-10-03T11:37:19.481Z,63.30
2018-10-03T11:39:48.118Z,64.31
2018-10-03T11:42:16.783Z,63.48
2018-10-03T11:44:45.359Z,64.72
2018-10-03T11:47:13.817Z,65.22
2018-10-03T11:49:42.190Z,64.46
2018-10-03T11:52:11.489Z,65.06
2018-10-03T11:54:39.877Z,63.72
2018-10-03T11:57:08.807Z,63.28
2018-10-03T11:59:37.363Z,62.05
2018-10-03T12:02:05.693Z,63.20
2018-10-03T12:04:34.321Z,62.85
2018-10-03T12:07:02.677Z,61.40
2018-10-03T12:09:31.740Z,62.15
2018-10-03T12:12:00.502Z,61.72
2018-10-03T12:14:28.865Z,61.87
2018-10-03T12:16:57.230Z,60.45
2018-10-03T12:19:25.590Z,60.02
2018-10-03T12:21:53.961Z,59.77
2018-10-03T12:24:22.301Z,61.12
2018-10-03T12:26:50.737Z,60.40
2018-10-03T12:29:19.244Z,62.72
2018-10-03T12:31:47.582Z,62.61
2018-10-03T12:34:15.979Z,64.58
2018-10-03T12:36:44.389Z,64.15
2018-10-03T12:39:13.678Z,61.64
2018-10-03T12:41:42.020Z,61.13
2018-10-03T12:44:10.413Z,59.06
2018-10-03T12:46:39.073Z,60.88
2018-10-03T12:49:07.499Z,59.04
2018-10-03T12:51:36.205Z,60.33
2018-10-03T12:54:05.450Z,58.64
2018-10-03T12:56:34.439Z,57.53
2018-10-03T12:59:02.857Z,58.70
2018-10-03T13:01:31.229Z,57.45
2018-10-03T13:03:59.676Z,57.21
2018-10-03T13:06:28.062Z,58.25
2018-10-03T13:08:56.487Z,57.92
2018-10-03T13:11:24.842Z,58.49
2018-10-03T13:13:53.212Z,59.05
2018-10-03T13:16:21.657Z,60.63
2018-10-03T13:18:50.042Z,59.59
2018-10-03T13:21:18.413Z,60.78
2018-10-03T13:23:46.792Z,59.50
2018-10-03T13:26:15.810Z,59.33
2018-10-03T13:28:44.323Z,59.35
2018-10-03T13:31:12.705Z,58.00
2018-10-03T13:33:41.413Z,57.13
2018-10-03T13:36:09.806Z,57.39
2018-10-03T13:38:38.182Z,55.87
2018-10-03T13:41:06.556Z,54.89
2018-10-03T13:43:34.901Z,53.98
2018-10-03T13:46:03.373Z,54.03
2018-10-03T13:48:32.133Z,54.12
2018-10-03T13:51:00.536Z,52.51
2018-10-03T13:53:28.938Z,54.47
2018-10-03T13:55:57.337Z,52.75
2018-10-03T13:58:25.747Z,51.51
2018-10-03T14:00:54.085Z,51.42
2018-10-03T14:03:22.473Z,51.70
2018-10-03T14:05:51.392Z,54.31
2018-10-03T14:08:19.819Z,53.36
2018-10-03T14:10:48.205Z,53.37
2018-10-03T14:13:16.630Z,53.99
2018-10-03T14:15:45.035Z,54.49
2018-10-03T14:18:13.494Z,54.09
2018-10-03T14:20:42.398Z,53.77
2018-10-03T14:23:10.796Z,52.96
2018-10-03T14:25:39.250Z,54.36
2018-10-03T14:28:07.672Z,53.89
2018-10-03T14:30:36.479Z,54.60
2018-10-03T14:33:04.985Z,54.25
2018-10-03T14:35:33.871Z,55.03
2018-10-03T14:38:02.537Z,55.06
2018-10-03T14:40:30.876Z,55.05
2018-10-03T14:42:59.268Z,54.41
2018-10-03T14:45:27.602Z,54.26
2018-10-03T14:47:56.228Z,54.39
2018-10-03T14:50:24.578Z,53.75
2018-10-03T14:52:53.082Z,53.74
2018-10-03T14:55:21.569Z,53.91
2018-10-03T14:57:49.914Z,52.70
2018-10-03T15:00:18.445Z,53.07
2018-10-03T15:02:46.827Z,53.30
2018-10-03T15:05:15.241Z,52.38
2018-10-03T15:07:43.585Z,52.73
2018-10-03T15:10:11.990Z,52.95
2018-10-03T15:12:40.414Z,53.40
2018-10-03T15:15:08.812Z,53.24
2018-10-03T15:17:37.193Z,53.62
2018-10-03T15:20:06.038Z,52.39
2018-10-03T15:22:34.393Z,52.47
2018-10-03T15:25:02.775Z,51.49
2018-10-03T15:27:31.133Z,52.77
2018-10-03T15:29:59.510Z,52.93
2018-10-03T15:32:28.073Z,53.22
2018-10-03T15:34:56.464Z,53.51
2018-10-03T15:37:24.937Z,54.49
2018-10-03T15:39:53.315Z,55.78
2018-10-03T15:42:21.659Z,56.39
2018-10-03T15:44:50.079Z,56.11
2018-10-03T15:47:18.602Z,55.79
2018-10-03T15:49:46.953Z,55.99
2018-10-03T15:52:15.285Z,56.68
2018-10-03T15:54:43.649Z,56.62
2018-10-03T15:57:12.037Z,56.54
2018-10-03T15:59:40.406Z,56.79
2018-10-03T16:02:08.774Z,56.18
2018-10-03T16:04:37.425Z,55.67
2018-10-03T16:07:06.214Z,56.12
2018-10-03T16:09:34.656Z,57.17
2018-10-03T16:12:03.498Z,56.15
2018-10-03T16:14:31.949Z,55.54
2018-10-03T16:17:00.302Z,55.53
2018-10-03T16:19:28.698Z,56.77
2018-10-03T16:21:57.093Z,57.06
2018-10-03T16:24:25.481Z,56.38
2018-10-03T16:26:53.850Z,57.31
2018-10-03T16:29:22.193Z,56.37
2018-10-03T16:31:50.609Z,56.73
2018-10-03T16:34:19.030Z,58.92
2018-10-03T16:49:55.197Z,64.82
2018-10-03T16:52:23.723Z,64.89
2018-10-03T16:54:52.193Z,66.02
2018-10-03T16:57:20.639Z,67.60
2018-10-03T16:59:49.132Z,68.28
2018-10-03T17:02:17.645Z,68.26
2018-10-03T17:04:46.113Z,69.16
2018-10-03T17:07:14.582Z,69.37
2018-10-03T17:09:43.683Z,70.48
2018-10-03T17:12:14.372Z,70.51
2018-10-03T17:14:42.878Z,71.38
2018-10-03T17:17:11.619Z,71.67
2018-10-03T17:19:40.532Z,72.34
2018-10-03T17:22:09.958Z,72.35
2018-10-03T17:24:39.031Z,73.64
2018-10-03T17:27:07.519Z,74.10
2018-10-03T17:29:35.942Z,74.82
2018-10-03T17:32:04.552Z,74.71
2018-10-03T17:34:33.041Z,74.59
2018-10-03T17:37:01.565Z,76.56
2018-10-03T17:39:30.116Z,77.46
2018-10-03T17:41:58.764Z,78.34
2018-10-03T17:44:27.271Z,77.80
2018-10-03T17:46:59.109Z,77.82
2018-10-03T17:49:27.636Z,77.58
2018-10-03T17:51:56.157Z,78.46
2018-10-03T17:54:24.668Z,78.34
2018-10-03T17:56:53.184Z,78.16
2018-10-03T17:59:21.685Z,78.78
2018-10-03T18:01:52.143Z,78.42
2018-10-03T18:04:20.652Z,79.06
2018-10-03T18:06:49.130Z,79.78
2018-10-03T18:09:17.650Z,79.77
2018-10-03T18:11:46.151Z,79.34
2018-10-03T18:14:15.912Z,81.22
2018-10-03T18:16:46.259Z,82.41
2018-10-03T18:19:14.716Z,82.72
2018-10-03T18:21:43.244Z,84.03
2018-10-03T18:24:11.750Z,84.29
2018-10-03T18:26:40.273Z,84.61
2018-10-03T18:29:08.766Z,84.19
2018-10-03T18:31:38.134Z,84.90
2018-10-03T18:34:06.636Z,84.78
2018-10-03T18:36:35.205Z,84.74
2018-10-03T18:39:05.531Z,83.72
2018-10-03T18:41:34.081Z,82.96
2018-10-03T18:44:02.533Z,82.87
2018-10-03T18:46:31.015Z,83.36
2018-10-03T18:48:59.502Z,83.91
2018-10-03T18:51:28.012Z,83.90
2018-10-03T18:53:56.481Z,83.89
2018-10-03T18:56:24.940Z,84.95
2018-10-03T18:58:53.538Z,84.33
2018-10-03T19:01:22.108Z,84.98
2018-10-03T19:03:50.587Z,84.46
2018-10-03T19:06:20.000Z,83.79
2018-10-03T19:08:48.501Z,83.25
2018-10-03T19:11:17.047Z,82.61
2018-10-03T19:13:45.708Z,83.54
2018-10-03T19:16:16.396Z,83.54
2018-10-03T19:18:44.824Z,84.18
2018-10-03T19:21:14.055Z,84.86
2018-10-03T19:23:42.584Z,85.84
2018-10-03T19:26:11.351Z,85.86
2018-10-03T19:28:39.810Z,85.70
2018-10-03T19:31:08.504Z,85.77
2018-10-03T19:33:37.087Z,86.24
2018-10-03T19:36:05.935Z,87.90
2018-10-03T19:38:34.932Z,86.64
2018-10-03T19:41:03.421Z,85.83
2018-10-03T19:43:31.971Z,85.31
2018-10-03T19:46:00.437Z,85.42
2018-10-03T19:48:29.108Z,84.42
2018-10-03T19:50:57.572Z,84.97
2018-10-03T19:53:31.435Z,84.99
2018-10-03T19:56:00.500Z,84.98
2018-10-03T19:58:29.017Z,85.48
2018-10-03T20:00:57.764Z,85.37
2018-10-03T20:03:26.476Z,84.58
2018-10-03T20:05:57.900Z,85.83
2018-10-03T20:08:26.375Z,86.16
2018-10-03T20:10:54.837Z,87.35
2018-10-03T20:13:23.309Z,86.40
2018-10-03T20:15:53.381Z,87.54
2018-10-03T20:18:23.072Z,87.45
2018-10-03T20:20:52.708Z,87.54
2018-10-03T20:23:22.096Z,86.95
2018-10-03T20:25:50.664Z,87.97
2018-10-03T20:28:19.172Z,88.50
2018-10-03T20:30:47.973Z,88.79
2018-10-03T20:33:16.415Z,88.47
2018-10-03T20:35:44.902Z,87.93
2018-10-03T20:38:13.726Z,86.77
2018-10-03T20:40:43.144Z,86.32
2018-10-03T20:43:11.799Z,85.50
2018-10-03T20:45:40.429Z,86.23
2018-10-03T20:48:10.166Z,85.37
2018-10-03T20:50:38.780Z,86.29
2018-10-03T20:53:07.913Z,86.42
2018-10-03T20:55:36.724Z,85.81
2018-10-03T20:58:05.417Z,86.14
2018-10-03T21:00:34.051Z,85.21
2018-10-03T21:03:03.634Z,87.15
2018-10-03T21:05:32.237Z,86.89
2018-10-03T21:08:00.924Z,87.45
2018-10-03T21:10:29.672Z,87.00
2018-10-03T21:12:58.331Z,86.41
2018-10-03T21:15:27.024Z,86.90
2018-10-03T21:17:56.297Z,87.35
2018-10-03T21:20:24.835Z,87.65
2018-10-03T21:22:53.630Z,88.00
2018-10-03T21:25:23.686Z,88.08
2018-10-03T21:27:52.525Z,87.10
2018-10-03T21:30:21.557Z,87.05
2018-10-03T21:32:50.085Z,85.88
2018-10-03T21:35:18.564Z,86.83
2018-10-03T21:37:47.117Z,87.23
2018-10-03T21:40:15.600Z,88.72
2018-10-03T21:42:44.009Z,87.93
2018-10-03T21:45:12.601Z,86.55
2018-10-03T21:47:41.063Z,87.18
2018-10-03T21:50:09.600Z,87.77
2018-10-03T21:52:38.122Z,87.79
2018-10-03T21:55:07.297Z,87.59
2018-10-03T21:57:35.730Z,87.11
2018-10-03T22:00:04.488Z,88.19
2018-10-03T22:02:32.960Z,88.90
2018-10-03T22:05:01.489Z,87.46
2018-10-03T22:07:29.968Z,86.78
2018-10-03T22:09:58.471Z,85.69
2018-10-03T22:12:27.163Z,86.04
2018-10-03T22:14:55.725Z,88.52
2018-10-03T22:17:25.235Z,87.10
2018-10-03T22:19:56.037Z,87.58
2018-10-03T22:22:24.505Z,87.97
2018-10-03T22:24:53.008Z,88.25
2018-10-03T22:27:21.462Z,88.18
2018-10-03T22:29:49.958Z,89.08
2018-10-03T22:32:18.463Z,86.86
2018-10-03T22:34:47.006Z,87.25
2018-10-03T22:37:16.251Z,88.52
2018-10-03T22:39:45.231Z,87.23
2018-10-03T22:42:13.751Z,88.63
2018-10-03T22:44:42.373Z,89.07
2018-10-03T22:47:10.863Z,89.52
2018-10-03T22:49:39.411Z,88.81
2018-10-03T22:52:08.129Z,88.95
2018-10-03T22:54:36.644Z,89.77
2018-10-03T22:57:05.143Z,88.95
2018-10-03T22:59:33.663Z,88.36
2018-10-03T23:02:02.133Z,87.57
2018-10-03T23:04:30.819Z,87.72
2018-10-03T23:06:59.375Z,87.30
2018-10-03T23:09:27.919Z,86.92
2018-10-03T23:11:56.372Z,85.95
2018-10-03T23:14:24.939Z,86.09
2018-10-03T23:16:54.919Z,87.40
2018-10-03T23:19:23.735Z,87.50
2018-10-03T23:21:52.183Z,87.43
2018-10-03T23:24:20.683Z,86.58
2018-10-03T23:26:49.225Z,86.58
2018-10-03T23:29:17.723Z,86.64
2018-10-03T23:31:46.210Z,85.60
2018-10-03T23:34:14.719Z,85.90
2018-10-03T23:36:43.679Z,87.04
2018-10-03T23:39:12.879Z,87.90
2018-10-03T23:41:41.618Z,88.09
2018-10-03T23:44:10.524Z,87.78
2018-10-03T23:46:40.036Z,86.84
2018-10-03T23:49:10.261Z,86.27
2018-10-03T23:51:38.836Z,85.79
2018-10-03T23:54:07.320Z,88.70
2018-10-03T23:56:36.711Z,88.35
2018-10-03T23:59:05.196Z,87.71
